Time;durP1;ratioP1;P1;durP2;ratioP2;P2;SDS_P1;SDS_P2;PMS_P1;PMS_P2;Temp;Humidity;BMP_temperature;BMP_pressure;BME280_temperature;BME280_humidity;BME280_pressure;Samples;Min_cycle;Max_cycle;Signal;HPM_P1;HPM_P2
2022/08/20 00:02:18;;;;;;;10.13;7.43;;;21.10;99.90;;;;;;4943381;28;20204;-86
2022/08/20 00:04:49;;;;;;;10.93;8.25;;;21.10;99.90;;;;;;4948643;29;20291;-86
2022/08/20 00:07:16;;;;;;;11.30;7.55;;;21.10;99.90;;;;;;4950319;28;20230;-86
2022/08/20 00:09:44;;;;;;;11.85;7.80;;;21.00;99.90;;;;;;4939369;29;20260;-86
2022/08/20 00:12:16;;;;;;;9.55;7.68;;;21.00;99.90;;;;;;4945990;28;20224;-86
2022/08/20 00:14:43;;;;;;;11.52;8.07;;;21.00;99.90;;;;;;4955371;28;20201;-86
2022/08/20 00:17:12;;;;;;;12.35;8.43;;;21.00;99.90;;;;;;4968337;28;20220;-87
2022/08/20 00:19:40;;;;;;;12.43;8.40;;;20.90;99.90;;;;;;4953401;28;20751;-86
2022/08/20 00:22:16;;;;;;;13.25;9.02;;;21.00;99.90;;;;;;4945245;28;20275;-86
2022/08/20 00:24:44;;;;;;;14.30;8.85;;;20.90;99.90;;;;;;4976892;28;21282;-86
2022/08/20 00:27:13;;;;;;;13.23;8.73;;;20.90;99.90;;;;;;4977727;28;20221;-86
2022/08/20 00:29:50;;;;;;;11.05;8.13;;;20.90;99.90;;;;;;4972444;28;20239;-87
2022/08/20 00:32:18;;;;;;;12.18;7.65;;;20.90;99.90;;;;;;4977215;28;20204;-86
2022/08/20 00:34:46;;;;;;;9.98;7.15;;;20.90;99.90;;;;;;4974976;28;20664;-85
2022/08/20 00:37:22;;;;;;;12.80;7.95;;;21.00;99.90;;;;;;4950311;28;20242;-86
2022/08/20 00:39:50;;;;;;;11.70;8.10;;;20.90;99.90;;;;;;4961100;28;20600;-86
2022/08/20 00:42:17;;;;;;;10.55;7.43;;;20.90;99.90;;;;;;4960801;28;20322;-86
2022/08/20 00:44:46;;;;;;;13.85;7.45;;;21.00;99.90;;;;;;4959874;28;20208;-85
2022/08/20 00:47:16;;;;;;;12.45;7.68;;;21.00;99.90;;;;;;4963605;28;20227;-87
2022/08/20 00:49:44;;;;;;;9.00;7.32;;;21.00;99.90;;;;;;4970261;28;20639;-86
2022/08/20 00:52:18;;;;;;;11.95;8.50;;;21.00;99.90;;;;;;4957918;28;20303;-85
2022/08/20 00:54:58;;;;;;;11.43;8.63;;;20.90;99.90;;;;;;4967440;28;20215;-87
2022/08/20 00:57:36;;;;;;;13.82;8.15;;;21.00;99.90;;;;;;4960623;28;20224;-85
2022/08/20 01:00:36;;;;;;;13.50;7.95;;;21.00;99.90;;;;;;4957702;28;20272;-86
2022/08/20 01:03:10;;;;;;;11.18;8.65;;;21.00;99.90;;;;;;4965987;28;20235;-85
2022/08/20 01:05:45;;;;;;;12.45;8.52;;;20.90;99.90;;;;;;4942186;29;20670;-85
2022/08/20 01:08:20;;;;;;;12.82;8.80;;;20.90;99.90;;;;;;4959497;28;20314;-85
2022/08/20 01:10:48;;;;;;;11.70;8.55;;;21.00;99.90;;;;;;4950765;28;20228;-85
2022/08/20 01:13:26;;;;;;;13.57;8.10;;;20.90;99.90;;;;;;4962871;28;20213;-85
2022/08/20 01:15:57;;;;;;;11.20;8.23;;;21.00;99.90;;;;;;4944818;28;20391;-84
2022/08/20 01:18:27;;;;;;;12.60;9.02;;;21.00;99.90;;;;;;4970318;28;20601;-84
2022/08/20 01:21:00;;;;;;;13.68;8.95;;;20.90;99.90;;;;;;4957192;28;20243;-85
2022/08/20 01:23:38;;;;;;;12.88;8.27;;;20.90;99.90;;;;;;4955267;28;20213;-85
2022/08/20 01:26:11;;;;;;;13.32;8.85;;;21.00;99.90;;;;;;4941830;29;20223;-85
2022/08/20 01:29:03;;;;;;;12.55;8.68;;;21.00;99.90;;;;;;4966659;28;20573;-85
2022/08/20 01:31:35;;;;;;;13.27;9.10;;;21.00;99.90;;;;;;4954369;28;20240;-86
2022/08/20 01:34:09;;;;;;;12.40;8.57;;;20.90;99.90;;;;;;4948107;28;20199;-86
2022/08/20 01:36:40;;;;;;;13.07;8.32;;;20.90;99.90;;;;;;4957898;28;20240;-85
2022/08/20 01:39:15;;;;;;;12.63;8.55;;;20.90;99.90;;;;;;4958579;28;20223;-87
2022/08/20 01:42:01;;;;;;;11.57;8.43;;;20.90;99.90;;;;;;4949950;28;20234;-85
2022/08/20 01:44:29;;;;;;;14.05;8.68;;;20.90;99.90;;;;;;4976997;28;20676;-86
2022/08/20 01:47:06;;;;;;;12.73;7.88;;;20.90;99.90;;;;;;4944871;28;20219;-86
2022/08/20 01:49:37;;;;;;;11.75;8.63;;;20.80;99.90;;;;;;4951841;28;20203;-86
2022/08/20 01:52:11;;;;;;;13.05;8.95;;;20.90;99.90;;;;;;4955739;28;20276;-85
2022/08/20 01:54:39;;;;;;;13.60;8.50;;;20.90;99.90;;;;;;4948987;28;20208;-86
2022/08/20 01:57:16;;;;;;;11.02;8.20;;;20.80;99.90;;;;;;4961673;28;20207;-86
2022/08/20 01:59:43;;;;;;;10.98;8.85;;;20.90;99.90;;;;;;4971275;28;20769;-85
2022/08/20 02:02:12;;;;;;;12.60;9.07;;;20.80;99.90;;;;;;4960646;28;20204;-85
2022/08/20 02:04:41;;;;;;;14.70;9.07;;;20.80;99.90;;;;;;4981934;28;20192;-86
2022/08/20 02:07:20;;;;;;;16.05;10.00;;;20.70;99.90;;;;;;4969328;28;20255;-85
2022/08/20 02:09:48;;;;;;;15.88;9.82;;;20.70;99.90;;;;;;4955433;28;20192;-84
2022/08/20 02:12:16;;;;;;;13.10;10.10;;;20.70;99.90;;;;;;4955773;28;20205;-86
2022/08/20 02:14:47;;;;;;;14.13;10.02;;;20.70;99.90;;;;;;4971798;28;20249;-86
2022/08/20 02:17:14;;;;;;;15.18;10.13;;;20.60;99.90;;;;;;4959602;28;20232;-85
2022/08/20 02:19:49;;;;;;;15.38;8.93;;;20.70;99.90;;;;;;4964619;28;20935;-87
2022/08/20 02:22:19;;;;;;;13.90;9.60;;;20.60;99.90;;;;;;4949485;28;20282;-86
2022/08/20 02:24:47;;;;;;;18.05;9.60;;;20.60;99.90;;;;;;4968707;28;20201;-86
2022/08/20 02:27:15;;;;;;;13.30;9.35;;;20.70;99.90;;;;;;4957800;28;20228;-85
2022/08/20 02:29:47;;;;;;;14.77;9.00;;;20.60;99.90;;;;;;4959856;28;20208;-86
2022/08/20 02:32:17;;;;;;;16.52;9.02;;;20.60;99.90;;;;;;4963619;28;20283;-85
2022/08/20 02:35:02;;;;;;;13.90;9.40;;;20.60;99.90;;;;;;4966913;28;20232;-87
2022/08/20 02:37:33;;;;;;;21.48;10.70;;;20.60;99.90;;;;;;4971545;28;20272;-86
2022/08/20 02:40:01;;;;;;;16.13;10.55;;;20.60;99.90;;;;;;4956881;29;20532;-86
2022/08/20 02:42:29;;;;;;;14.85;9.98;;;20.60;99.90;;;;;;4971634;29;20205;-86
2022/08/20 02:44:57;;;;;;;11.10;8.90;;;20.50;99.90;;;;;;4958498;28;20236;-86
2022/08/20 02:47:26;;;;;;;17.23;8.88;;;20.50;99.90;;;;;;4954001;28;20216;-85
2022/08/20 02:49:54;;;;;;;14.57;9.82;;;20.50;99.90;;;;;;4973250;28;20208;-86
2022/08/20 02:52:21;;;;;;;16.90;10.18;;;20.50;99.90;;;;;;4977639;28;20215;-86
2022/08/20 02:54:51;;;;;;;13.90;8.82;;;20.50;99.90;;;;;;4948024;28;20282;-86
2022/08/20 02:57:19;;;;;;;13.90;8.80;;;20.50;99.90;;;;;;4947120;28;20296;-85
2022/08/20 02:59:47;;;;;;;16.10;8.93;;;20.50;99.90;;;;;;4966671;28;20223;-86
2022/08/20 03:02:15;;;;;;;14.25;8.82;;;20.50;99.90;;;;;;4974991;28;20258;-85
2022/08/20 03:04:47;;;;;;;13.02;8.10;;;20.50;99.90;;;;;;4957414;28;20271;-86
2022/08/20 03:07:29;;;;;;;15.00;9.13;;;20.50;99.90;;;;;;4975268;28;20210;-86
2022/08/20 03:09:56;;;;;;;12.57;8.48;;;20.50;99.90;;;;;;4963192;28;20203;-86
2022/08/20 03:12:26;;;;;;;12.95;7.65;;;20.50;99.90;;;;;;4977994;28;20207;-86
2022/08/20 03:14:53;;;;;;;13.95;9.00;;;20.50;99.90;;;;;;4973171;28;20208;-86
2022/08/20 03:17:20;;;;;;;12.80;8.70;;;20.40;99.90;;;;;;4953851;29;20295;-87
2022/08/20 03:19:47;;;;;;;14.93;9.63;;;20.50;99.90;;;;;;4984930;28;20219;-85
2022/08/20 03:22:14;;;;;;;15.93;8.93;;;20.40;99.90;;;;;;4959012;28;20203;-87
2022/08/20 03:24:41;;;;;;;13.75;9.25;;;20.40;99.90;;;;;;4958729;28;20208;-87
2022/08/20 03:27:09;;;;;;;13.55;10.35;;;20.30;99.90;;;;;;4960390;28;20232;-86
2022/08/20 03:33:21;;;;;;;13.40;9.10;;;20.20;99.90;;;;;;4980472;28;20179;-86
2022/08/20 03:35:53;;;;;;;12.60;9.98;;;20.10;99.90;;;;;;4958094;28;20195;-86
2022/08/20 03:38:22;;;;;;;16.58;9.65;;;20.10;99.90;;;;;;4973773;28;20732;-86
2022/08/20 03:41:00;;;;;;;14.35;9.93;;;20.20;99.90;;;;;;4943986;28;20668;-86
2022/08/20 03:43:28;;;;;;;19.70;9.40;;;20.20;99.90;;;;;;4958748;28;20205;-85
2022/08/20 03:45:56;;;;;;;15.95;9.77;;;20.20;99.90;;;;;;4964462;28;20209;-86
2022/08/20 03:48:24;;;;;;;14.57;9.02;;;20.20;99.90;;;;;;4947046;28;20222;-86
2022/08/20 03:50:52;;;;;;;11.73;8.85;;;20.20;99.90;;;;;;4956430;28;20224;-86
2022/08/20 03:53:19;;;;;;;15.50;9.65;;;20.20;99.90;;;;;;4934081;28;20295;-86
2022/08/20 03:55:47;;;;;;;14.40;9.55;;;20.30;99.90;;;;;;4949393;28;20670;-86
2022/08/20 03:58:21;;;;;;;13.75;9.70;;;20.30;99.90;;;;;;4939980;28;20216;-85
2022/08/20 04:01:01;;;;;;;14.05;9.18;;;20.30;99.90;;;;;;4954876;28;20212;-86
2022/08/20 04:03:28;;;;;;;13.90;8.68;;;20.30;99.90;;;;;;4956144;28;20243;-85
2022/08/20 04:05:55;;;;;;;10.48;8.85;;;20.30;99.90;;;;;;4959671;28;20213;-87
2022/08/20 04:08:25;;;;;;;13.90;8.90;;;20.30;99.90;;;;;;4953300;28;20695;-85
2022/08/20 04:10:56;;;;;;;12.38;8.45;;;20.30;99.90;;;;;;4955648;28;20228;-86
2022/08/20 04:13:25;;;;;;;15.30;8.70;;;20.30;99.90;;;;;;4962978;28;20218;-87
2022/08/20 04:15:55;;;;;;;15.70;8.68;;;20.30;99.90;;;;;;4954120;28;20311;-86
2022/08/20 04:18:24;;;;;;;14.43;8.27;;;20.30;99.90;;;;;;4941156;28;20254;-85
2022/08/20 04:20:53;;;;;;;14.15;8.73;;;20.20;99.90;;;;;;4947863;28;20217;-87
2022/08/20 04:23:25;;;;;;;14.57;8.50;;;20.20;99.90;;;;;;4953032;28;20213;-85
2022/08/20 04:25:56;;;;;;;18.60;9.15;;;20.20;99.90;;;;;;4942945;28;20216;-87
2022/08/20 04:28:32;;;;;;;16.13;8.70;;;20.20;99.90;;;;;;4949108;28;20576;-88
2022/08/20 04:31:13;;;;;;;13.70;9.18;;;20.20;99.90;;;;;;4936335;29;20319;-85
2022/08/20 04:34:08;;;;;;;14.18;8.98;;;20.10;99.90;;;;;;4939797;28;20204;-86
2022/08/20 04:36:54;;;;;;;16.30;8.73;;;20.10;99.90;;;;;;4953125;28;20232;-87
2022/08/20 04:39:21;;;;;;;17.42;8.20;;;20.00;99.90;;;;;;4962435;28;20206;-86
2022/08/20 04:41:50;;;;;;;14.82;8.52;;;20.00;99.90;;;;;;4962828;28;20234;-88
2022/08/20 04:44:18;;;;;;;14.15;8.55;;;20.00;99.90;;;;;;4962845;28;20240;-86
2022/08/20 04:46:45;;;;;;;14.57;8.98;;;20.00;99.90;;;;;;4946326;28;20232;-84
2022/08/20 04:49:13;;;;;;;12.65;7.85;;;20.00;99.90;;;;;;4934851;28;20291;-84
2022/08/20 04:51:41;;;;;;;16.80;9.13;;;20.00;99.90;;;;;;4940106;28;20377;-85
2022/08/20 04:54:13;;;;;;;15.30;8.52;;;20.00;99.90;;;;;;4961032;28;20274;-87
2022/08/20 04:56:46;;;;;;;16.13;8.63;;;20.00;99.90;;;;;;4954120;28;20302;-85
2022/08/20 04:59:16;;;;;;;17.20;8.27;;;19.90;99.90;;;;;;4941067;29;20207;-86
2022/08/20 05:01:47;;;;;;;15.75;9.10;;;20.00;99.90;;;;;;4937527;28;20212;-86
2022/08/20 05:04:14;;;;;;;12.15;8.77;;;20.00;99.90;;;;;;4958050;28;20214;-86
2022/08/20 05:06:44;;;;;;;19.48;9.00;;;20.00;99.90;;;;;;4958383;28;20212;-86
2022/08/20 05:09:13;;;;;;;17.98;8.52;;;20.00;99.90;;;;;;4963396;28;20303;-88
2022/08/20 05:11:44;;;;;;;15.07;8.65;;;20.00;99.90;;;;;;4958437;28;20217;-85
2022/08/20 05:14:24;;;;;;;16.45;9.40;;;20.00;99.90;;;;;;4948454;28;20212;-87
2022/08/20 05:16:56;;;;;;;13.43;8.80;;;20.00;99.90;;;;;;4942619;28;20224;-88
2022/08/20 05:19:27;;;;;;;15.02;10.10;;;20.00;99.90;;;;;;4949816;28;20228;-87
2022/08/20 05:21:57;;;;;;;16.33;9.68;;;20.00;99.90;;;;;;4951817;28;20212;-86
2022/08/20 05:24:30;;;;;;;17.80;9.80;;;20.00;99.90;;;;;;4963154;28;20605;-87
2022/08/20 05:27:11;;;;;;;17.58;9.82;;;20.00;99.90;;;;;;4961006;28;20216;-88
2022/08/20 05:29:52;;;;;;;13.18;9.23;;;20.00;99.90;;;;;;4949451;29;20300;-87
2022/08/20 05:32:43;;;;;;;15.18;8.82;;;19.90;99.90;;;;;;4954641;29;20244;-92
2022/08/20 05:36:04;;;;;;;;;;;;;;;;;;;;;
2022/08/20 05:38:47;;;;;;;14.45;8.00;;;20.00;99.90;;;;;;4976065;28;20196;-92
2022/08/20 05:41:20;;;;;;;15.95;8.90;;;20.00;99.90;;;;;;4957348;28;20196;-91
2022/08/20 05:44:19;;;;;;;;;;;;;;;;;;;;;
2022/08/20 05:46:50;;;;;;;13.68;8.35;;;20.00;99.90;;;;;;4965706;28;20291;-94
2022/08/20 05:49:25;;;;;;;14.23;9.35;;;20.00;99.90;;;;;;4947310;28;20219;-92
2022/08/20 05:52:29;;;;;;;14.38;8.80;;;20.00;99.90;;;;;;4970989;28;20278;-92
2022/08/20 05:55:25;;;;;;;16.25;8.85;;;20.00;99.90;;;;;;4954226;28;20205;-92
2022/08/20 05:58:02;;;;;;;15.20;9.20;;;20.10;99.90;;;;;;4953938;29;20192;-92
2022/08/20 06:01:08;;;;;;;14.18;8.63;;;20.10;99.90;;;;;;4956476;29;20201;-92
2022/08/20 06:06:56;;;;;;;13.50;8.40;;;20.00;99.90;;;;;;4987567;28;20180;-92
2022/08/20 06:09:25;;;;;;;14.65;8.38;;;20.00;99.90;;;;;;4987823;23;20266;-80
2022/08/20 06:12:04;;;;;;;13.48;7.75;;;20.00;99.90;;;;;;4992503;28;20242;-81
2022/08/20 06:14:32;;;;;;;13.55;8.45;;;20.10;99.90;;;;;;4989466;28;20266;-81
2022/08/20 06:17:17;;;;;;;12.75;7.85;;;20.00;99.90;;;;;;4989437;28;20195;-83
2022/08/20 06:19:48;;;;;;;13.98;8.93;;;20.00;99.90;;;;;;4980462;28;20640;-82
2022/08/20 06:22:15;;;;;;;14.77;7.85;;;20.00;99.90;;;;;;4992654;28;20195;-81
2022/08/20 06:24:53;;;;;;;13.95;8.20;;;20.10;99.90;;;;;;4992517;28;20211;-81
2022/08/20 06:27:20;;;;;;;14.23;8.35;;;20.10;99.90;;;;;;4990482;28;20575;-81
2022/08/20 06:29:48;;;;;;;13.00;7.78;;;20.10;99.90;;;;;;4973108;28;20331;-81
2022/08/20 06:32:16;;;;;;;12.15;5.75;;;20.10;99.90;;;;;;5000280;28;20262;-84
2022/08/20 06:34:44;;;;;;;10.98;6.60;;;20.10;99.90;;;;;;4989576;28;20207;-86
2022/08/20 06:37:22;;;;;;;12.75;6.03;;;20.20;99.90;;;;;;4985133;28;20249;-83
2022/08/20 06:40:03;;;;;;;11.85;6.95;;;20.30;99.90;;;;;;4998651;28;20297;-85
2022/08/20 06:42:30;;;;;;;13.27;6.97;;;20.40;99.90;;;;;;4983505;28;20218;-84
2022/08/20 06:44:59;;;;;;;10.70;6.47;;;20.50;99.90;;;;;;5003560;28;20659;-85
2022/08/20 06:47:29;;;;;;;13.90;6.55;;;20.70;99.90;;;;;;4995003;28;20606;-87
2022/08/20 06:49:56;;;;;;;10.30;5.97;;;20.70;99.90;;;;;;4974430;28;20746;-85
2022/08/20 06:52:23;;;;;;;13.85;6.55;;;20.80;99.90;;;;;;4993431;28;20222;-83
2022/08/20 06:55:10;;;;;;;12.98;5.68;;;20.90;99.90;;;;;;4990219;28;20203;-84
2022/08/20 06:57:38;;;;;;;10.10;5.88;;;21.00;99.90;;;;;;4991451;28;20223;-86
2022/08/20 07:00:08;;;;;;;12.63;5.97;;;21.00;99.90;;;;;;4976772;28;20207;-86
2022/08/20 07:02:35;;;;;;;13.32;6.18;;;21.10;99.90;;;;;;4990275;28;20203;-86
2022/08/20 07:05:04;;;;;;;13.65;6.47;;;21.20;99.90;;;;;;4990127;28;20203;-85
2022/08/20 07:07:31;;;;;;;14.40;6.60;;;21.30;99.90;;;;;;4977038;28;20207;-86
2022/08/20 07:10:20;;;;;;;10.85;5.88;;;21.40;99.90;;;;;;4972999;28;20297;-84
2022/08/20 07:16:57;;;;;;;11.23;5.30;;;21.80;99.90;;;;;;4939513;29;20831;-83
2022/08/20 07:36:26;;;;;;;6.00;2.55;;;27.00;99.90;;;;;;4904419;28;20217;-85
2022/08/20 07:39:56;;;;;;;;;;;;;;;;;;;;;
2022/08/20 07:43:15;;;;;;;9.38;2.70;;;28.10;99.90;;;;;;4966644;28;20683;-87
2022/08/20 07:46:25;;;;;;;;;;;;;;;;;;;;;
2022/08/20 07:50:28;;;;;;;9.57;2.60;;;29.00;99.90;;;;;;4920689;29;20213;-85
2022/08/20 07:53:56;;;;;;;9.38;3.03;;;29.30;99.90;;;;;;4905201;29;20724;-84
2022/08/20 07:57:13;;;;;;;;;;;;;;;;;;;;;
2022/08/20 08:13:35;;;;;;;7.70;2.38;;;30.60;99.90;;;;;;4953219;28;20243;-85
2022/08/20 08:16:05;;;;;;;6.53;2.13;;;30.70;99.90;;;;;;4969461;28;20212;-86
2022/08/20 08:18:48;;;;;;;9.52;2.70;;;30.80;99.90;;;;;;4952182;28;20632;-84
2022/08/20 08:21:16;;;;;;;6.03;2.40;;;31.00;99.40;;;;;;4951789;28;20999;-85
2022/08/20 08:23:44;;;;;;;6.05;2.05;;;31.10;99.60;;;;;;4968962;28;20211;-83
2022/08/20 08:26:15;;;;;;;7.88;2.00;;;31.20;97.60;;;;;;4952708;28;20239;-82
2022/08/20 08:28:45;;;;;;;5.55;1.80;;;31.30;96.90;;;;;;4955944;28;20222;-85
2022/08/20 08:31:13;;;;;;;5.05;1.83;;;31.20;96.70;;;;;;4970111;28;20215;-82
2022/08/20 08:33:41;;;;;;;7.60;2.08;;;31.20;96.70;;;;;;4969112;28;20211;-84
2022/08/20 08:36:12;;;;;;;6.05;1.80;;;31.10;96.30;;;;;;4952575;28;20212;-84
2022/08/20 08:38:42;;;;;;;6.95;1.75;;;31.00;96.40;;;;;;4968237;28;20239;-84
2022/08/20 08:41:16;;;;;;;5.38;1.55;;;31.00;96.20;;;;;;4969801;28;20299;-83
2022/08/20 08:43:45;;;;;;;7.40;1.98;;;31.10;96.30;;;;;;4955668;28;20219;-83
2022/08/20 08:46:16;;;;;;;6.22;1.80;;;31.10;95.60;;;;;;4973387;28;20216;-81
2022/08/20 08:48:47;;;;;;;6.15;1.70;;;31.00;95.30;;;;;;4958635;28;20263;-83
2022/08/20 08:51:26;;;;;;;6.88;1.92;;;30.90;94.90;;;;;;4972508;28;20226;-83
2022/08/20 08:53:55;;;;;;;7.28;1.95;;;30.70;94.70;;;;;;4972904;28;20211;-84
2022/08/20 08:56:29;;;;;;;4.40;1.70;;;30.50;94.60;;;;;;4972820;28;20216;-84
2022/08/20 08:59:10;;;;;;;6.55;1.90;;;30.50;94.50;;;;;;4972583;28;20235;-82
2022/08/20 09:01:45;;;;;;;5.05;1.83;;;30.40;94.60;;;;;;4976676;28;20216;-83
2022/08/20 09:04:30;;;;;;;6.03;1.83;;;30.20;94.10;;;;;;4972905;28;20696;-84
2022/08/20 09:06:58;;;;;;;6.22;1.60;;;30.30;95.10;;;;;;4972849;28;20222;-82
2022/08/20 09:09:37;;;;;;;5.75;2.00;;;30.20;94.70;;;;;;4955379;28;20215;-85
2022/08/20 09:12:11;;;;;;;7.68;1.77;;;30.10;94.40;;;;;;4957318;28;20231;-84
2022/08/20 09:14:41;;;;;;;4.63;1.70;;;30.00;93.90;;;;;;4949890;28;20240;-85
2022/08/20 09:17:08;;;;;;;5.90;1.60;;;30.00;93.70;;;;;;4958747;28;20235;-82
2022/08/20 09:20:23;;;;;;;;;;;;;;;;;;;;;
2022/08/20 09:23:56;;;;;;;7.85;2.03;;;30.10;93.30;;;;;;4972331;28;20290;-85
2022/08/20 09:27:36;;;;;;;5.25;1.65;;;29.90;94.80;;;;;;4896994;29;20214;-84
2022/08/20 09:42:30;;;;;;;4.97;1.63;;;29.30;94.50;;;;;;5236936;23;20243;-84
2022/08/20 09:44:58;;;;;;;5.03;2.10;;;29.30;95.40;;;;;;4972096;28;20247;-83
2022/08/20 09:47:25;;;;;;;6.25;1.92;;;29.50;95.10;;;;;;4971897;28;20224;-83
2022/08/20 09:49:53;;;;;;;7.72;2.03;;;29.30;94.50;;;;;;4970831;28;20566;-83
2022/08/20 09:52:24;;;;;;;7.35;2.22;;;29.20;94.60;;;;;;4954251;28;20239;-82
2022/08/20 09:54:55;;;;;;;5.85;1.98;;;28.90;94.50;;;;;;4950571;28;20270;-82
2022/08/20 09:57:23;;;;;;;6.40;1.88;;;28.50;94.90;;;;;;4971543;28;20278;-85
2022/08/20 09:59:59;;;;;;;10.43;1.92;;;28.20;94.80;;;;;;4955928;28;20439;-84
2022/08/20 10:02:26;;;;;;;11.57;2.33;;;27.80;95.10;;;;;;4973102;28;20276;-84
2022/08/20 10:04:53;;;;;;;7.80;2.17;;;27.60;94.80;;;;;;4955135;28;20212;-83
2022/08/20 10:07:23;;;;;;;7.68;2.33;;;27.20;95.20;;;;;;4957570;28;20246;-82
2022/08/20 10:09:50;;;;;;;6.07;2.15;;;26.70;95.70;;;;;;4972219;28;20307;-83
2022/08/20 10:12:18;;;;;;;9.93;2.25;;;26.30;96.50;;;;;;4972657;28;20726;-84
2022/08/20 10:14:45;;;;;;;10.80;2.72;;;26.10;97.50;;;;;;4971249;28;20222;-85
2022/08/20 10:17:12;;;;;;;7.50;2.50;;;26.20;98.70;;;;;;4954294;28;20207;-82
2022/08/20 10:19:39;;;;;;;6.95;1.80;;;26.50;98.90;;;;;;4954658;28;20215;-82
2022/08/20 10:22:06;;;;;;;4.85;1.80;;;26.80;99.30;;;;;;4976106;28;20229;-83
2022/08/20 10:24:33;;;;;;;9.65;2.75;;;27.20;99.70;;;;;;4962773;28;20212;-82
2022/08/20 10:27:01;;;;;;;6.90;2.20;;;27.60;99.20;;;;;;4957442;28;20281;-83
2022/08/20 10:29:29;;;;;;;11.63;2.38;;;27.80;98.50;;;;;;4971605;28;20212;-82
2022/08/20 10:31:57;;;;;;;5.95;1.92;;;27.90;97.80;;;;;;4970596;28;20211;-82
2022/08/20 10:34:24;;;;;;;6.53;1.98;;;27.70;97.60;;;;;;4969989;28;20227;-83
2022/08/20 10:36:51;;;;;;;8.05;1.83;;;27.50;97.40;;;;;;4953175;28;20266;-82
2022/08/20 10:39:18;;;;;;;6.97;1.60;;;27.30;97.60;;;;;;4970239;28;20270;-83
2022/08/20 10:41:50;;;;;;;5.82;1.80;;;27.00;97.20;;;;;;4973709;28;20235;-82
2022/08/20 10:44:17;;;;;;;5.35;1.85;;;26.90;97.80;;;;;;4953638;28;20247;-83
2022/08/20 10:46:46;;;;;;;7.45;1.83;;;27.00;96.90;;;;;;4975616;28;20208;-82
2022/08/20 10:49:13;;;;;;;10.77;2.00;;;27.20;96.80;;;;;;4975919;28;20271;-83
2022/08/20 10:51:40;;;;;;;8.68;2.20;;;27.40;96.40;;;;;;4969917;28;20215;-85
2022/08/20 10:54:06;;;;;;;6.57;1.90;;;27.60;95.90;;;;;;4951962;28;20239;-83
2022/08/20 10:56:38;;;;;;;5.03;1.65;;;27.60;95.30;;;;;;4952779;28;20208;-84
2022/08/20 10:59:05;;;;;;;5.88;1.60;;;27.50;94.80;;;;;;4970109;28;20559;-84
2022/08/20 11:01:32;;;;;;;5.68;2.25;;;27.40;95.30;;;;;;4970627;28;20287;-83
2022/08/20 11:04:03;;;;;;;8.98;2.00;;;27.20;95.50;;;;;;4969525;28;20234;-84
2022/08/20 11:06:30;;;;;;;8.02;1.80;;;27.10;95.20;;;;;;4968458;28;20200;-82
2022/08/20 11:08:57;;;;;;;7.45;1.60;;;26.90;94.60;;;;;;4970595;28;20214;-82
2022/08/20 11:11:24;;;;;;;4.82;1.77;;;26.90;94.30;;;;;;4950148;28;20200;-84
2022/08/20 11:13:51;;;;;;;7.30;1.63;;;26.90;93.50;;;;;;4969743;28;20239;-83
2022/08/20 11:16:17;;;;;;;5.25;1.83;;;27.20;93.40;;;;;;4952960;28;20236;-82
2022/08/20 11:18:46;;;;;;;6.07;1.70;;;27.60;93.90;;;;;;4969776;28;20215;-82
2022/08/20 11:21:14;;;;;;;5.75;1.80;;;28.00;94.10;;;;;;4970913;28;20629;-82
2022/08/20 11:23:41;;;;;;;4.85;1.60;;;28.00;93.90;;;;;;4968794;28;20215;-82
2022/08/20 11:26:08;;;;;;;8.52;2.20;;;27.90;94.00;;;;;;4964669;28;20196;-83
2022/08/20 11:28:35;;;;;;;8.10;2.00;;;27.70;93.80;;;;;;4971105;28;20334;-81
2022/08/20 11:31:02;;;;;;;8.50;1.88;;;27.60;94.50;;;;;;4945472;28;20210;-80
2022/08/20 11:33:29;;;;;;;5.70;1.60;;;27.50;93.90;;;;;;4972378;28;20235;-81
2022/08/20 11:35:56;;;;;;;8.18;1.80;;;27.40;94.30;;;;;;4955356;28;20259;-82
2022/08/20 11:38:23;;;;;;;4.60;1.38;;;27.30;94.10;;;;;;4972903;28;20211;-81
2022/08/20 11:40:50;;;;;;;6.35;2.10;;;27.20;94.20;;;;;;4975679;28;20660;-82
2022/08/20 11:43:18;;;;;;;6.28;2.17;;;27.00;94.10;;;;;;4979121;28;20218;-80
2022/08/20 11:45:48;;;;;;;5.13;1.85;;;26.90;94.50;;;;;;4977890;28;20714;-81
2022/08/20 11:48:16;;;;;;;7.95;2.22;;;26.90;94.40;;;;;;4978341;28;20615;-82
2022/08/20 11:50:44;;;;;;;5.25;1.70;;;27.00;94.20;;;;;;4961849;28;20262;-79
2022/08/20 11:53:11;;;;;;;5.03;1.80;;;27.20;94.20;;;;;;4972742;28;20231;-82
2022/08/20 11:55:39;;;;;;;6.07;1.58;;;27.40;94.10;;;;;;4969699;28;20310;-82
2022/08/20 11:58:06;;;;;;;5.03;2.05;;;27.50;92.50;;;;;;4970721;28;20212;-81
2022/08/20 12:00:35;;;;;;;7.45;1.77;;;27.70;91.50;;;;;;4956717;28;20196;-80
2022/08/20 12:03:04;;;;;;;6.43;1.80;;;27.80;90.30;;;;;;4975328;28;20227;-81
2022/08/20 12:05:40;;;;;;;9.82;2.15;;;27.90;90.30;;;;;;4978212;28;20252;-77
2022/08/20 12:08:08;;;;;;;6.97;1.50;;;27.80;91.40;;;;;;4976290;28;20250;-80
2022/08/20 12:10:36;;;;;;;4.55;1.60;;;27.90;91.60;;;;;;4977288;28;20660;-81
2022/08/20 12:13:05;;;;;;;6.65;1.95;;;27.80;90.70;;;;;;4957192;28;20216;-79
2022/08/20 12:15:34;;;;;;;4.80;1.90;;;27.70;90.40;;;;;;4973875;28;20243;-81
2022/08/20 12:18:06;;;;;;;6.30;1.83;;;27.60;90.50;;;;;;4961542;28;20290;-81
2022/08/20 12:20:34;;;;;;;10.20;2.38;;;27.70;90.20;;;;;;4966977;28;20215;-81
2022/08/20 12:23:02;;;;;;;7.47;2.20;;;28.00;90.60;;;;;;4982979;28;20235;-79
2022/08/20 12:25:29;;;;;;;4.10;1.38;;;28.10;90.40;;;;;;4981995;28;20224;-80
2022/08/20 12:27:56;;;;;;;4.65;1.58;;;28.10;90.40;;;;;;4960307;28;20561;-81
2022/08/20 12:30:23;;;;;;;4.82;1.60;;;27.90;90.30;;;;;;4974287;28;20675;-79
2022/08/20 12:32:50;;;;;;;5.75;1.60;;;27.80;90.40;;;;;;4975274;28;20761;-81
2022/08/20 12:35:18;;;;;;;3.95;1.90;;;27.50;90.80;;;;;;4968117;28;20706;-80
2022/08/20 12:37:45;;;;;;;3.45;1.63;;;27.30;90.50;;;;;;4961542;28;20207;-81
2022/08/20 12:40:19;;;;;;;6.88;1.88;;;27.30;90.50;;;;;;4953307;28;20329;-82
2022/08/20 12:42:59;;;;;;;5.57;1.88;;;27.60;90.50;;;;;;4956840;28;20290;-81
2022/08/20 12:45:26;;;;;;;8.23;2.10;;;27.80;89.50;;;;;;4954211;28;20259;-82
2022/08/20 12:48:00;;;;;;;5.43;1.65;;;28.00;88.80;;;;;;4954843;28;20218;-82
2022/08/20 12:50:27;;;;;;;4.47;1.55;;;28.20;87.60;;;;;;4971980;28;20216;-82
2022/08/20 12:52:57;;;;;;;4.53;1.50;;;28.10;86.10;;;;;;4972063;28;20239;-84
2022/08/20 12:55:25;;;;;;;8.68;1.90;;;28.30;87.70;;;;;;4971814;28;20307;-79
2022/08/20 12:57:55;;;;;;;5.55;1.58;;;28.50;86.50;;;;;;4971548;28;20218;-81
2022/08/20 13:00:29;;;;;;;4.80;1.80;;;28.60;85.20;;;;;;4970966;28;20223;-82
2022/08/20 13:02:59;;;;;;;5.97;1.45;;;28.70;85.50;;;;;;4971569;28;20290;-80
2022/08/20 13:05:27;;;;;;;7.95;2.28;;;28.80;83.80;;;;;;4971469;28;20226;-81
2022/08/20 13:07:55;;;;;;;4.47;1.63;;;29.00;82.90;;;;;;4970945;28;20219;-81
2022/08/20 13:10:31;;;;;;;4.82;1.50;;;29.20;82.60;;;;;;4971066;28;20267;-83
2022/08/20 13:13:02;;;;;;;5.75;2.00;;;29.40;80.60;;;;;;4971536;28;20565;-83
2022/08/20 13:15:30;;;;;;;4.57;1.80;;;29.50;80.40;;;;;;4971228;28;20649;-82
2022/08/20 13:18:00;;;;;;;4.63;1.73;;;29.70;80.30;;;;;;4971178;28;20603;-81
2022/08/20 13:20:28;;;;;;;4.13;1.60;;;29.50;78.70;;;;;;4971741;28;20245;-81
2022/08/20 13:23:02;;;;;;;5.45;2.28;;;29.30;79.00;;;;;;4970902;28;20243;-81
2022/08/20 13:25:30;;;;;;;5.20;1.50;;;29.00;79.00;;;;;;4970820;28;20251;-81
2022/08/20 13:27:59;;;;;;;7.68;1.92;;;28.90;78.90;;;;;;4970513;28;20564;-82
2022/08/20 13:30:26;;;;;;;5.07;1.70;;;28.90;78.50;;;;;;4969994;28;20719;-82
2022/08/20 13:32:53;;;;;;;6.80;1.90;;;28.80;79.00;;;;;;4953945;28;20703;-82
2022/08/20 13:35:20;;;;;;;7.05;1.60;;;28.40;78.40;;;;;;4971251;28;20290;-83
2022/08/20 13:37:48;;;;;;;3.75;1.50;;;28.20;79.30;;;;;;4982560;28;20210;-81
2022/08/20 13:40:16;;;;;;;6.45;2.28;;;28.00;79.20;;;;;;4971249;28;20204;-82
2022/08/20 13:42:44;;;;;;;6.38;1.60;;;27.90;79.00;;;;;;4970832;28;20662;-80
2022/08/20 13:45:11;;;;;;;5.32;1.80;;;28.00;79.20;;;;;;4970925;28;20620;-82
2022/08/20 13:47:40;;;;;;;6.30;1.60;;;28.20;80.20;;;;;;4971034;28;20256;-82
2022/08/20 13:50:14;;;;;;;6.63;2.25;;;28.60;79.00;;;;;;4953182;28;20208;-81
2022/08/20 13:52:42;;;;;;;6.40;1.60;;;28.90;78.40;;;;;;4953601;28;20230;-83
2022/08/20 13:55:11;;;;;;;5.47;1.80;;;28.90;78.20;;;;;;4972149;28;20224;-81
2022/08/20 13:57:39;;;;;;;6.53;1.90;;;29.10;78.50;;;;;;4973123;28;20255;-84
2022/08/20 14:00:11;;;;;;;6.10;1.80;;;29.00;77.50;;;;;;4971112;28;20630;-80
2022/08/20 14:02:39;;;;;;;5.43;1.80;;;29.00;77.40;;;;;;4970514;28;20223;-80
2022/08/20 14:05:07;;;;;;;7.03;2.00;;;29.00;76.70;;;;;;4969892;28;20220;-81
2022/08/20 14:07:37;;;;;;;4.25;1.88;;;29.00;76.60;;;;;;4970614;28;20289;-85
2022/08/20 14:10:11;;;;;;;6.85;2.13;;;28.90;76.30;;;;;;4970605;28;20318;-81
2022/08/20 14:12:38;;;;;;;6.35;1.75;;;28.70;77.10;;;;;;4967964;28;20217;-82